sensor_id;sensor_type;location;lat;lon;timestamp;temperature;humidity
23562;DHT22;11959;49.418;8.728;2023-06-26T00:00:15;20.00;99.90
23562;DHT22;11959;49.418;8.728;2023-06-26T00:02:41;20.00;99.90
23562;DHT22;11959;49.418;8.728;2023-06-26T00:05:07;19.90;99.90
23562;DHT22;11959;49.418;8.728;2023-06-26T00:07:33;19.90;99.90
23562;DHT22;11959;49.418;8.728;2023-06-26T00:10:06;19.90;99.90
23562;DHT22;11959;49.418;8.728;2023-06-26T00:12:32;19.90;99.90
23562;DHT22;11959;49.418;8.728;2023-06-26T00:14:58;19.90;99.90
23562;DHT22;11959;49.418;8.728;2023-06-26T00:17:24;19.90;99.90
23562;DHT22;11959;49.418;8.728;2023-06-26T00:19:50;19.90;99.90
23562;DHT22;11959;49.418;8.728;2023-06-26T00:22:16;19.80;99.90
23562;DHT22;11959;49.418;8.728;2023-06-26T00:24:42;19.80;99.90
23562;DHT22;11959;49.418;8.728;2023-06-26T00:27:07;19.70;99.90
23562;DHT22;11959;49.418;8.728;2023-06-26T00:29:33;19.70;99.90
23562;DHT22;11959;49.418;8.728;2023-06-26T00:31:59;19.70;99.90
23562;DHT22;11959;49.418;8.728;2023-06-26T00:34:24;19.60;99.90
23562;DHT22;11959;49.418;8.728;2023-06-26T00:36:50;19.60;99.90
23562;DHT22;11959;49.418;8.728;2023-06-26T00:39:16;19.60;99.90
23562;DHT22;11959;49.418;8.728;2023-06-26T00:41:41;19.60;99.90
23562;DHT22;11959;49.418;8.728;2023-06-26T00:44:07;19.60;99.90
23562;DHT22;11959;49.418;8.728;2023-06-26T00:46:34;19.60;99.90
23562;DHT22;11959;49.418;8.728;2023-06-26T00:49:01;19.50;99.90
23562;DHT22;11959;49.418;8.728;2023-06-26T00:51:29;19.50;99.90
23562;DHT22;11959;49.418;8.728;2023-06-26T00:53:56;19.50;99.90
23562;DHT22;11959;49.418;8.728;2023-06-26T00:56:23;19.40;99.90
23562;DHT22;11959;49.418;8.728;2023-06-26T00:58:49;19.40;99.90
23562;DHT22;11959;49.418;8.728;2023-06-26T01:01:14;19.30;99.90
23562;DHT22;11959;49.418;8.728;2023-06-26T01:03:48;19.30;99.90
23562;DHT22;11959;49.418;8.728;2023-06-26T01:06:20;19.30;99.90
23562;DHT22;11959;49.418;8.728;2023-06-26T01:08:46;19.20;99.90
23562;DHT22;11959;49.418;8.728;2023-06-26T01:11:13;19.30;99.90
23562;DHT22;11959;49.418;8.728;2023-06-26T01:13:42;19.30;99.90
23562;DHT22;11959;49.418;8.728;2023-06-26T01:16:09;19.20;99.90
23562;DHT22;11959;49.418;8.728;2023-06-26T01:18:37;19.20;99.90
23562;DHT22;11959;49.418;8.728;2023-06-26T01:21:07;19.20;99.90
23562;DHT22;11959;49.418;8.728;2023-06-26T01:24:12;19.20;99.90
23562;DHT22;11959;49.418;8.728;2023-06-26T01:26:46;19.20;99.90
23562;DHT22;11959;49.418;8.728;2023-06-26T01:29:15;19.20;99.90
23562;DHT22;11959;49.418;8.728;2023-06-26T01:31:42;19.20;99.90
23562;DHT22;11959;49.418;8.728;2023-06-26T01:34:09;19.10;99.90
23562;DHT22;11959;49.418;8.728;2023-06-26T01:36:35;19.10;99.90
23562;DHT22;11959;49.418;8.728;2023-06-26T01:39:02;19.10;99.90
23562;DHT22;11959;49.418;8.728;2023-06-26T01:41:28;19.00;99.90
23562;DHT22;11959;49.418;8.728;2023-06-26T01:44:40;19.00;99.90
23562;DHT22;11959;49.418;8.728;2023-06-26T01:47:01;19.00;99.90
23562;DHT22;11959;49.418;8.728;2023-06-26T01:50:02;18.90;99.90
23562;DHT22;11959;49.418;8.728;2023-06-26T01:52:53;18.90;99.90
23562;DHT22;11959;49.418;8.728;2023-06-26T01:57:55;18.90;99.90
23562;DHT22;11959;49.418;8.728;2023-06-26T02:00:22;18.80;99.90
23562;DHT22;11959;49.418;8.728;2023-06-26T02:02:48;18.80;99.90
23562;DHT22;11959;49.418;8.728;2023-06-26T02:05:14;18.70;99.90
23562;DHT22;11959;49.418;8.728;2023-06-26T02:07:40;18.70;99.90
23562;DHT22;11959;49.418;8.728;2023-06-26T02:10:06;18.70;99.90
23562;DHT22;11959;49.418;8.728;2023-06-26T02:12:34;18.70;99.90
23562;DHT22;11959;49.418;8.728;2023-06-26T02:14:59;18.60;99.90
23562;DHT22;11959;49.418;8.728;2023-06-26T02:17:25;18.60;99.90
23562;DHT22;11959;49.418;8.728;2023-06-26T02:19:51;18.60;99.90
23562;DHT22;11959;49.418;8.728;2023-06-26T02:22:17;18.60;99.90
23562;DHT22;11959;49.418;8.728;2023-06-26T02:24:43;18.60;99.90
23562;DHT22;11959;49.418;8.728;2023-06-26T02:27:09;18.50;99.90
23562;DHT22;11959;49.418;8.728;2023-06-26T02:29:35;18.50;99.90
23562;DHT22;11959;49.418;8.728;2023-06-26T02:32:01;18.50;99.90
23562;DHT22;11959;49.418;8.728;2023-06-26T02:34:27;18.50;99.90
23562;DHT22;11959;49.418;8.728;2023-06-26T02:36:53;18.50;99.90
23562;DHT22;11959;49.418;8.728;2023-06-26T02:39:22;18.50;99.90
23562;DHT22;11959;49.418;8.728;2023-06-26T02:41:48;18.40;99.90
23562;DHT22;11959;49.418;8.728;2023-06-26T02:44:13;18.40;99.90
23562;DHT22;11959;49.418;8.728;2023-06-26T02:46:40;18.40;99.90
23562;DHT22;11959;49.418;8.728;2023-06-26T02:49:06;18.40;99.90
23562;DHT22;11959;49.418;8.728;2023-06-26T02:51:32;18.30;99.90
23562;DHT22;11959;49.418;8.728;2023-06-26T02:53:58;18.30;99.90
23562;DHT22;11959;49.418;8.728;2023-06-26T02:56:24;18.20;99.90
23562;DHT22;11959;49.418;8.728;2023-06-26T02:58:56;18.20;99.90
23562;DHT22;11959;49.418;8.728;2023-06-26T03:01:22;18.20;99.90
23562;DHT22;11959;49.418;8.728;2023-06-26T03:03:47;18.20;99.90
23562;DHT22;11959;49.418;8.728;2023-06-26T03:06:13;18.20;99.90
23562;DHT22;11959;49.418;8.728;2023-06-26T03:08:40;18.20;99.90
23562;DHT22;11959;49.418;8.728;2023-06-26T03:11:06;18.10;99.90
23562;DHT22;11959;49.418;8.728;2023-06-26T03:13:36;18.00;99.90
23562;DHT22;11959;49.418;8.728;2023-06-26T03:16:05;18.00;99.90
23562;DHT22;11959;49.418;8.728;2023-06-26T03:18:31;18.00;99.90
23562;DHT22;11959;49.418;8.728;2023-06-26T03:20:56;18.00;99.90
23562;DHT22;11959;49.418;8.728;2023-06-26T03:23:23;18.00;99.90
23562;DHT22;11959;49.418;8.728;2023-06-26T03:25:50;18.00;99.90
23562;DHT22;11959;49.418;8.728;2023-06-26T03:28:16;17.90;99.90
23562;DHT22;11959;49.418;8.728;2023-06-26T03:30:42;17.90;99.90
23562;DHT22;11959;49.418;8.728;2023-06-26T03:33:08;17.90;99.90
23562;DHT22;11959;49.418;8.728;2023-06-26T03:35:33;17.90;99.90
23562;DHT22;11959;49.418;8.728;2023-06-26T03:37:59;17.90;99.90
23562;DHT22;11959;49.418;8.728;2023-06-26T03:40:26;17.90;99.90
23562;DHT22;11959;49.418;8.728;2023-06-26T03:42:52;17.80;99.90
23562;DHT22;11959;49.418;8.728;2023-06-26T03:45:18;17.80;99.90
23562;DHT22;11959;49.418;8.728;2023-06-26T03:47:45;17.80;99.90
23562;DHT22;11959;49.418;8.728;2023-06-26T03:50:12;17.80;99.90
23562;DHT22;11959;49.418;8.728;2023-06-26T03:52:38;17.80;99.90
23562;DHT22;11959;49.418;8.728;2023-06-26T03:55:04;17.80;99.90
23562;DHT22;11959;49.418;8.728;2023-06-26T03:57:30;17.70;99.90
23562;DHT22;11959;49.418;8.728;2023-06-26T03:59:55;17.80;99.90
23562;DHT22;11959;49.418;8.728;2023-06-26T04:02:21;17.80;99.90
23562;DHT22;11959;49.418;8.728;2023-06-26T04:04:46;17.80;99.90
23562;DHT22;11959;49.418;8.728;2023-06-26T04:07:12;17.70;99.90
23562;DHT22;11959;49.418;8.728;2023-06-26T04:09:38;17.80;99.90
23562;DHT22;11959;49.418;8.728;2023-06-26T04:12:04;17.80;99.90
23562;DHT22;11959;49.418;8.728;2023-06-26T04:14:29;17.80;99.90
23562;DHT22;11959;49.418;8.728;2023-06-26T04:16:55;17.80;99.90
23562;DHT22;11959;49.418;8.728;2023-06-26T04:19:20;17.80;99.90
23562;DHT22;11959;49.418;8.728;2023-06-26T04:21:46;17.80;99.90
23562;DHT22;11959;49.418;8.728;2023-06-26T04:24:12;17.90;99.90
23562;DHT22;11959;49.418;8.728;2023-06-26T04:26:38;17.90;99.90
23562;DHT22;11959;49.418;8.728;2023-06-26T04:29:06;17.90;99.90
23562;DHT22;11959;49.418;8.728;2023-06-26T04:31:32;18.00;99.90
23562;DHT22;11959;49.418;8.728;2023-06-26T04:33:58;18.00;99.90
23562;DHT22;11959;49.418;8.728;2023-06-26T04:36:24;18.10;99.90
23562;DHT22;11959;49.418;8.728;2023-06-26T04:38:56;18.10;99.90
23562;DHT22;11959;49.418;8.728;2023-06-26T04:41:22;18.20;99.90
23562;DHT22;11959;49.418;8.728;2023-06-26T04:43:47;18.20;99.90
23562;DHT22;11959;49.418;8.728;2023-06-26T04:46:13;18.20;99.90
23562;DHT22;11959;49.418;8.728;2023-06-26T04:48:39;18.30;99.90
23562;DHT22;11959;49.418;8.728;2023-06-26T04:51:04;18.30;99.90
23562;DHT22;11959;49.418;8.728;2023-06-26T04:53:30;18.40;99.90
23562;DHT22;11959;49.418;8.728;2023-06-26T04:55:56;18.30;99.90
23562;DHT22;11959;49.418;8.728;2023-06-26T04:58:21;18.40;99.90
23562;DHT22;11959;49.418;8.728;2023-06-26T05:00:47;18.40;99.90
23562;DHT22;11959;49.418;8.728;2023-06-26T05:03:15;18.50;99.90
23562;DHT22;11959;49.418;8.728;2023-06-26T05:05:42;18.60;99.90
23562;DHT22;11959;49.418;8.728;2023-06-26T05:10:41;18.60;99.90
23562;DHT22;11959;49.418;8.728;2023-06-26T05:13:06;18.70;99.90
23562;DHT22;11959;49.418;8.728;2023-06-26T05:15:32;18.80;99.90
23562;DHT22;11959;49.418;8.728;2023-06-26T05:17:57;18.80;99.90
23562;DHT22;11959;49.418;8.728;2023-06-26T05:20:23;18.90;99.90
23562;DHT22;11959;49.418;8.728;2023-06-26T05:22:49;18.90;99.90
23562;DHT22;11959;49.418;8.728;2023-06-26T05:25:15;19.00;99.90
23562;DHT22;11959;49.418;8.728;2023-06-26T05:27:41;19.00;99.90
23562;DHT22;11959;49.418;8.728;2023-06-26T05:30:08;19.10;99.90
23562;DHT22;11959;49.418;8.728;2023-06-26T05:32:35;19.10;99.90
23562;DHT22;11959;49.418;8.728;2023-06-26T05:35:02;19.20;99.90
23562;DHT22;11959;49.418;8.728;2023-06-26T05:37:29;19.20;99.90
23562;DHT22;11959;49.418;8.728;2023-06-26T05:39:56;19.30;99.90
23562;DHT22;11959;49.418;8.728;2023-06-26T05:42:22;19.40;99.90
23562;DHT22;11959;49.418;8.728;2023-06-26T05:44:48;19.50;99.90
23562;DHT22;11959;49.418;8.728;2023-06-26T05:47:13;19.60;99.90
23562;DHT22;11959;49.418;8.728;2023-06-26T05:49:39;19.70;99.90
23562;DHT22;11959;49.418;8.728;2023-06-26T05:52:05;19.80;99.90
23562;DHT22;11959;49.418;8.728;2023-06-26T05:54:31;20.00;99.90
23562;DHT22;11959;49.418;8.728;2023-06-26T05:56:57;20.10;99.90
23562;DHT22;11959;49.418;8.728;2023-06-26T05:59:26;20.10;99.90
23562;DHT22;11959;49.418;8.728;2023-06-26T06:01:52;20.20;99.90
23562;DHT22;11959;49.418;8.728;2023-06-26T06:04:18;20.30;99.90
23562;DHT22;11959;49.418;8.728;2023-06-26T06:06:43;20.40;99.90
23562;DHT22;11959;49.418;8.728;2023-06-26T06:09:09;20.40;99.90
23562;DHT22;11959;49.418;8.728;2023-06-26T06:11:35;20.50;99.90
23562;DHT22;11959;49.418;8.728;2023-06-26T06:14:00;20.60;99.90
23562;DHT22;11959;49.418;8.728;2023-06-26T06:16:26;20.70;99.90
23562;DHT22;11959;49.418;8.728;2023-06-26T06:18:54;20.80;99.90
23562;DHT22;11959;49.418;8.728;2023-06-26T06:21:20;20.80;99.90
23562;DHT22;11959;49.418;8.728;2023-06-26T06:23:46;20.80;99.90
23562;DHT22;11959;49.418;8.728;2023-06-26T06:26:12;21.00;99.90
23562;DHT22;11959;49.418;8.728;2023-06-26T06:28:38;21.10;99.90
23562;DHT22;11959;49.418;8.728;2023-06-26T06:31:04;21.20;99.90
23562;DHT22;11959;49.418;8.728;2023-06-26T06:33:30;21.40;99.90
23562;DHT22;11959;49.418;8.728;2023-06-26T06:35:55;21.50;99.90
23562;DHT22;11959;49.418;8.728;2023-06-26T06:38:21;21.50;99.90
23562;DHT22;11959;49.418;8.728;2023-06-26T06:40:47;21.60;99.90
23562;DHT22;11959;49.418;8.728;2023-06-26T06:43:12;21.70;99.90
23562;DHT22;11959;49.418;8.728;2023-06-26T06:45:38;21.80;99.90
23562;DHT22;11959;49.418;8.728;2023-06-26T06:48:04;21.90;99.90
23562;DHT22;11959;49.418;8.728;2023-06-26T06:50:30;21.90;99.90
23562;DHT22;11959;49.418;8.728;2023-06-26T06:52:56;21.90;99.90
23562;DHT22;11959;49.418;8.728;2023-06-26T06:55:22;22.00;99.90
23562;DHT22;11959;49.418;8.728;2023-06-26T06:57:48;22.10;99.90
23562;DHT22;11959;49.418;8.728;2023-06-26T07:00:14;22.30;99.90
23562;DHT22;11959;49.418;8.728;2023-06-26T07:02:42;22.40;99.90
23562;DHT22;11959;49.418;8.728;2023-06-26T07:05:08;22.50;99.90
23562;DHT22;11959;49.418;8.728;2023-06-26T07:07:36;22.60;99.90
23562;DHT22;11959;49.418;8.728;2023-06-26T07:10:07;22.70;99.90
23562;DHT22;11959;49.418;8.728;2023-06-26T07:12:33;22.80;99.90
23562;DHT22;11959;49.418;8.728;2023-06-26T07:15:01;22.90;99.90
23562;DHT22;11959;49.418;8.728;2023-06-26T07:17:26;23.00;99.90
23562;DHT22;11959;49.418;8.728;2023-06-26T07:19:52;23.10;99.90
23562;DHT22;11959;49.418;8.728;2023-06-26T07:22:19;23.10;99.90
23562;DHT22;11959;49.418;8.728;2023-06-26T07:24:46;23.20;99.90
23562;DHT22;11959;49.418;8.728;2023-06-26T07:27:16;23.20;99.90
23562;DHT22;11959;49.418;8.728;2023-06-26T07:29:43;23.20;99.90
23562;DHT22;11959;49.418;8.728;2023-06-26T07:32:08;23.40;99.90
23562;DHT22;11959;49.418;8.728;2023-06-26T07:34:34;23.50;99.90
23562;DHT22;11959;49.418;8.728;2023-06-26T07:37:00;23.70;99.90
23562;DHT22;11959;49.418;8.728;2023-06-26T07:39:26;23.80;99.90
23562;DHT22;11959;49.418;8.728;2023-06-26T07:41:51;23.90;99.90
23562;DHT22;11959;49.418;8.728;2023-06-26T07:44:17;23.90;99.90
23562;DHT22;11959;49.418;8.728;2023-06-26T07:46:43;24.00;99.90
23562;DHT22;11959;49.418;8.728;2023-06-26T07:49:10;24.10;99.90
23562;DHT22;11959;49.418;8.728;2023-06-26T07:51:36;24.10;99.90
23562;DHT22;11959;49.418;8.728;2023-06-26T07:54:02;24.10;99.90
23562;DHT22;11959;49.418;8.728;2023-06-26T07:56:27;24.20;99.90
23562;DHT22;11959;49.418;8.728;2023-06-26T07:58:53;24.30;99.90
23562;DHT22;11959;49.418;8.728;2023-06-26T08:01:19;24.40;99.90
23562;DHT22;11959;49.418;8.728;2023-06-26T08:03:44;24.40;99.90
23562;DHT22;11959;49.418;8.728;2023-06-26T08:06:10;24.50;99.90
23562;DHT22;11959;49.418;8.728;2023-06-26T08:08:36;24.70;99.90
23562;DHT22;11959;49.418;8.728;2023-06-26T08:11:01;24.80;99.90
23562;DHT22;11959;49.418;8.728;2023-06-26T08:13:28;24.90;99.90
23562;DHT22;11959;49.418;8.728;2023-06-26T08:15:53;25.10;99.90
23562;DHT22;11959;49.418;8.728;2023-06-26T08:18:20;25.40;99.90
23562;DHT22;11959;49.418;8.728;2023-06-26T08:20:45;25.70;99.90
23562;DHT22;11959;49.418;8.728;2023-06-26T08:23:11;25.80;99.90
23562;DHT22;11959;49.418;8.728;2023-06-26T08:25:37;26.00;99.90
23562;DHT22;11959;49.418;8.728;2023-06-26T08:28:02;26.20;99.90
23562;DHT22;11959;49.418;8.728;2023-06-26T08:30:28;26.30;99.90
23562;DHT22;11959;49.418;8.728;2023-06-26T08:32:57;26.40;99.90
23562;DHT22;11959;49.418;8.728;2023-06-26T08:35:23;26.60;99.90
23562;DHT22;11959;49.418;8.728;2023-06-26T08:37:48;26.70;99.90
23562;DHT22;11959;49.418;8.728;2023-06-26T08:40:17;26.90;99.90
23562;DHT22;11959;49.418;8.728;2023-06-26T08:42:44;27.10;99.90
23562;DHT22;11959;49.418;8.728;2023-06-26T08:45:10;27.20;99.90
23562;DHT22;11959;49.418;8.728;2023-06-26T08:47:37;27.30;99.90
23562;DHT22;11959;49.418;8.728;2023-06-26T08:50:12;27.30;99.90
23562;DHT22;11959;49.418;8.728;2023-06-26T08:52:54;27.60;99.90
23562;DHT22;11959;49.418;8.728;2023-06-26T08:55:23;27.70;99.90
23562;DHT22;11959;49.418;8.728;2023-06-26T08:57:51;27.80;99.90
23562;DHT22;11959;49.418;8.728;2023-06-26T09:00:17;27.90;99.90
23562;DHT22;11959;49.418;8.728;2023-06-26T09:02:44;28.00;99.90
23562;DHT22;11959;49.418;8.728;2023-06-26T09:05:11;28.00;99.90
23562;DHT22;11959;49.418;8.728;2023-06-26T09:07:36;28.00;99.90
23562;DHT22;11959;49.418;8.728;2023-06-26T09:10:02;28.10;99.90
23562;DHT22;11959;49.418;8.728;2023-06-26T09:12:28;28.20;99.90
23562;DHT22;11959;49.418;8.728;2023-06-26T09:14:55;28.30;99.90
23562;DHT22;11959;49.418;8.728;2023-06-26T09:17:25;28.50;99.80
23562;DHT22;11959;49.418;8.728;2023-06-26T09:19:54;28.60;99.50
23562;DHT22;11959;49.418;8.728;2023-06-26T09:22:19;28.60;99.40
23562;DHT22;11959;49.418;8.728;2023-06-26T09:24:45;28.70;99.30
23562;DHT22;11959;49.418;8.728;2023-06-26T09:27:11;28.70;98.90
23562;DHT22;11959;49.418;8.728;2023-06-26T09:29:37;28.70;99.10
23562;DHT22;11959;49.418;8.728;2023-06-26T09:32:03;28.70;98.70
23562;DHT22;11959;49.418;8.728;2023-06-26T09:34:35;28.80;98.80
23562;DHT22;11959;49.418;8.728;2023-06-26T09:37:01;28.90;98.60
23562;DHT22;11959;49.418;8.728;2023-06-26T09:39:30;28.90;98.70
23562;DHT22;11959;49.418;8.728;2023-06-26T09:41:56;29.00;99.40
23562;DHT22;11959;49.418;8.728;2023-06-26T09:44:23;29.00;99.20
23562;DHT22;11959;49.418;8.728;2023-06-26T09:46:49;29.00;99.30
23562;DHT22;11959;49.418;8.728;2023-06-26T09:49:15;29.00;98.40
23562;DHT22;11959;49.418;8.728;2023-06-26T09:51:41;29.10;98.70
23562;DHT22;11959;49.418;8.728;2023-06-26T09:54:08;29.20;98.50
23562;DHT22;11959;49.418;8.728;2023-06-26T09:56:35;29.30;98.20
23562;DHT22;11959;49.418;8.728;2023-06-26T09:59:02;29.40;98.50
23562;DHT22;11959;49.418;8.728;2023-06-26T10:01:29;29.40;98.40
23562;DHT22;11959;49.418;8.728;2023-06-26T10:03:55;29.50;98.90
23562;DHT22;11959;49.418;8.728;2023-06-26T10:06:35;29.70;98.40
23562;DHT22;11959;49.418;8.728;2023-06-26T10:09:03;29.80;98.00
23562;DHT22;11959;49.418;8.728;2023-06-26T10:11:56;30.00;98.00
23562;DHT22;11959;49.418;8.728;2023-06-26T10:14:34;30.10;97.30
23562;DHT22;11959;49.418;8.728;2023-06-26T10:17:03;30.20;97.30
23562;DHT22;11959;49.418;8.728;2023-06-26T10:19:30;30.30;97.30
23562;DHT22;11959;49.418;8.728;2023-06-26T10:21:58;30.30;97.70
23562;DHT22;11959;49.418;8.728;2023-06-26T10:24:29;30.40;97.30
23562;DHT22;11959;49.418;8.728;2023-06-26T10:27:16;30.30;96.90
23562;DHT22;11959;49.418;8.728;2023-06-26T10:29:44;30.40;97.10
23562;DHT22;11959;49.418;8.728;2023-06-26T10:32:12;30.60;96.50
23562;DHT22;11959;49.418;8.728;2023-06-26T10:34:38;30.70;95.90
23562;DHT22;11959;49.418;8.728;2023-06-26T10:37:04;30.90;96.00
23562;DHT22;11959;49.418;8.728;2023-06-26T10:39:50;30.80;96.50
23562;DHT22;11959;49.418;8.728;2023-06-26T10:42:28;30.30;95.90
23562;DHT22;11959;49.418;8.728;2023-06-26T10:45:15;30.20;95.70
23562;DHT22;11959;49.418;8.728;2023-06-26T10:47:44;30.10;96.10
23562;DHT22;11959;49.418;8.728;2023-06-26T10:50:27;30.10;96.30
23562;DHT22;11959;49.418;8.728;2023-06-26T10:55:50;30.00;95.80
23562;DHT22;11959;49.418;8.728;2023-06-26T10:58:33;29.90;96.10
23562;DHT22;11959;49.418;8.728;2023-06-26T11:03:41;29.60;95.90
23562;DHT22;11959;49.418;8.728;2023-06-26T11:06:17;29.50;96.00
23562;DHT22;11959;49.418;8.728;2023-06-26T11:14:25;29.50;96.30
23562;DHT22;11959;49.418;8.728;2023-06-26T11:16:52;29.20;95.90
23562;DHT22;11959;49.418;8.728;2023-06-26T11:19:19;29.10;96.10
23562;DHT22;11959;49.418;8.728;2023-06-26T11:21:45;29.00;96.10
23562;DHT22;11959;49.418;8.728;2023-06-26T11:24:12;28.90;96.30
23562;DHT22;11959;49.418;8.728;2023-06-26T11:26:42;28.90;96.90
23562;DHT22;11959;49.418;8.728;2023-06-26T11:29:09;29.10;97.10
23562;DHT22;11959;49.418;8.728;2023-06-26T11:31:39;29.00;96.80
23562;DHT22;11959;49.418;8.728;2023-06-26T11:34:08;28.80;96.90
23562;DHT22;11959;49.418;8.728;2023-06-26T11:36:46;28.70;96.70
23562;DHT22;11959;49.418;8.728;2023-06-26T11:39:13;29.00;96.70
23562;DHT22;11959;49.418;8.728;2023-06-26T11:41:40;29.40;97.00
23562;DHT22;11959;49.418;8.728;2023-06-26T11:44:07;29.70;97.40
23562;DHT22;11959;49.418;8.728;2023-06-26T11:46:34;30.00;96.40
23562;DHT22;11959;49.418;8.728;2023-06-26T11:49:03;30.00;96.50
23562;DHT22;11959;49.418;8.728;2023-06-26T11:51:28;29.90;96.40
23562;DHT22;11959;49.418;8.728;2023-06-26T11:53:54;29.90;96.50
23562;DHT22;11959;49.418;8.728;2023-06-26T11:56:20;29.70;96.50
23562;DHT22;11959;49.418;8.728;2023-06-26T12:01:36;29.50;96.30
23562;DHT22;11959;49.418;8.728;2023-06-26T12:04:07;29.50;96.40
23562;DHT22;11959;49.418;8.728;2023-06-26T12:06:40;29.30;96.40
23562;DHT22;11959;49.418;8.728;2023-06-26T12:09:09;29.20;96.60
23562;DHT22;11959;49.418;8.728;2023-06-26T12:11:42;29.20;96.30
23562;DHT22;11959;49.418;8.728;2023-06-26T12:14:09;29.40;96.40
23562;DHT22;11959;49.418;8.728;2023-06-26T12:16:36;29.60;96.60
23562;DHT22;11959;49.418;8.728;2023-06-26T12:19:07;29.80;96.40
23562;DHT22;11959;49.418;8.728;2023-06-26T12:24:14;29.80;95.90
23562;DHT22;11959;49.418;8.728;2023-06-26T12:26:45;29.70;95.80
23562;DHT22;11959;49.418;8.728;2023-06-26T12:29:12;29.90;96.00
23562;DHT22;11959;49.418;8.728;2023-06-26T12:31:49;30.00;96.00
23562;DHT22;11959;49.418;8.728;2023-06-26T12:34:17;30.10;95.80
23562;DHT22;11959;49.418;8.728;2023-06-26T12:36:45;30.40;95.50
23562;DHT22;11959;49.418;8.728;2023-06-26T12:39:11;30.40;95.00
23562;DHT22;11959;49.418;8.728;2023-06-26T12:41:53;30.40;94.30
23562;DHT22;11959;49.418;8.728;2023-06-26T12:44:27;30.10;93.70
23562;DHT22;11959;49.418;8.728;2023-06-26T12:47:02;30.00;94.50
23562;DHT22;11959;49.418;8.728;2023-06-26T12:49:39;29.90;94.00
23562;DHT22;11959;49.418;8.728;2023-06-26T12:52:07;29.90;94.00
23562;DHT22;11959;49.418;8.728;2023-06-26T12:54:40;29.90;94.10
23562;DHT22;11959;49.418;8.728;2023-06-26T12:57:06;29.90;93.80
23562;DHT22;11959;49.418;8.728;2023-06-26T12:59:33;29.80;93.90
23562;DHT22;11959;49.418;8.728;2023-06-26T13:02:00;29.80;94.00
23562;DHT22;11959;49.418;8.728;2023-06-26T13:04:25;29.70;93.40
23562;DHT22;11959;49.418;8.728;2023-06-26T13:06:51;29.70;93.50
23562;DHT22;11959;49.418;8.728;2023-06-26T13:09:20;29.70;93.00
23562;DHT22;11959;49.418;8.728;2023-06-26T13:11:46;29.80;92.60
23562;DHT22;11959;49.418;8.728;2023-06-26T13:14:11;29.90;92.80
23562;DHT22;11959;49.418;8.728;2023-06-26T13:16:38;30.00;92.60
23562;DHT22;11959;49.418;8.728;2023-06-26T13:19:03;30.00;92.40
23562;DHT22;11959;49.418;8.728;2023-06-26T13:21:29;30.10;92.10
23562;DHT22;11959;49.418;8.728;2023-06-26T13:23:56;30.30;91.70
23562;DHT22;11959;49.418;8.728;2023-06-26T13:26:22;30.30;91.90
23562;DHT22;11959;49.418;8.728;2023-06-26T13:28:48;30.30;92.30
23562;DHT22;11959;49.418;8.728;2023-06-26T13:31:15;30.40;91.90
23562;DHT22;11959;49.418;8.728;2023-06-26T13:33:40;30.40;91.20
23562;DHT22;11959;49.418;8.728;2023-06-26T13:36:06;30.50;91.50
23562;DHT22;11959;49.418;8.728;2023-06-26T13:38:35;30.50;91.60
23562;DHT22;11959;49.418;8.728;2023-06-26T13:41:01;30.50;91.30
23562;DHT22;11959;49.418;8.728;2023-06-26T13:43:28;30.50;91.00
23562;DHT22;11959;49.418;8.728;2023-06-26T13:45:54;30.50;90.70
23562;DHT22;11959;49.418;8.728;2023-06-26T13:48:20;30.40;90.60
23562;DHT22;11959;49.418;8.728;2023-06-26T13:50:47;30.50;90.50
23562;DHT22;11959;49.418;8.728;2023-06-26T13:53:13;30.50;90.20
23562;DHT22;11959;49.418;8.728;2023-06-26T13:55:40;30.40;90.30
23562;DHT22;11959;49.418;8.728;2023-06-26T13:58:07;30.40;90.40
23562;DHT22;11959;49.418;8.728;2023-06-26T14:00:34;30.50;90.70
23562;DHT22;11959;49.418;8.728;2023-06-26T14:03:01;30.40;90.30
23562;DHT22;11959;49.418;8.728;2023-06-26T14:05:31;30.40;90.30
23562;DHT22;11959;49.418;8.728;2023-06-26T14:07:56;30.50;90.00
23562;DHT22;11959;49.418;8.728;2023-06-26T14:10:22;30.40;90.20
23562;DHT22;11959;49.418;8.728;2023-06-26T14:12:48;30.40;90.20
23562;DHT22;11959;49.418;8.728;2023-06-26T14:15:15;30.40;90.50
23562;DHT22;11959;49.418;8.728;2023-06-26T14:17:41;30.40;89.80
23562;DHT22;11959;49.418;8.728;2023-06-26T14:20:08;30.40;89.80
23562;DHT22;11959;49.418;8.728;2023-06-26T14:22:44;30.40;89.50
23562;DHT22;11959;49.418;8.728;2023-06-26T14:25:11;30.40;88.00
23562;DHT22;11959;49.418;8.728;2023-06-26T14:27:37;30.30;88.10
23562;DHT22;11959;49.418;8.728;2023-06-26T14:30:04;30.10;87.70
23562;DHT22;11959;49.418;8.728;2023-06-26T14:32:30;30.00;87.60
23562;DHT22;11959;49.418;8.728;2023-06-26T14:34:56;30.10;87.60
23562;DHT22;11959;49.418;8.728;2023-06-26T14:37:22;30.10;87.00
23562;DHT22;11959;49.418;8.728;2023-06-26T14:39:48;30.00;87.30
23562;DHT22;11959;49.418;8.728;2023-06-26T14:42:13;30.00;86.60
23562;DHT22;11959;49.418;8.728;2023-06-26T14:44:39;30.00;86.70
23562;DHT22;11959;49.418;8.728;2023-06-26T14:47:05;30.00;86.40
23562;DHT22;11959;49.418;8.728;2023-06-26T14:49:30;30.00;85.70
23562;DHT22;11959;49.418;8.728;2023-06-26T14:51:56;30.00;84.90
23562;DHT22;11959;49.418;8.728;2023-06-26T14:54:22;30.00;83.70
23562;DHT22;11959;49.418;8.728;2023-06-26T14:56:48;29.70;82.70
23562;DHT22;11959;49.418;8.728;2023-06-26T14:59:14;29.60;82.60
23562;DHT22;11959;49.418;8.728;2023-06-26T15:01:40;29.50;81.60
23562;DHT22;11959;49.418;8.728;2023-06-26T15:04:06;29.30;80.70
23562;DHT22;11959;49.418;8.728;2023-06-26T15:06:32;29.20;79.60
23562;DHT22;11959;49.418;8.728;2023-06-26T15:08:58;29.10;81.50
23562;DHT22;11959;49.418;8.728;2023-06-26T15:11:24;29.10;82.10
23562;DHT22;11959;49.418;8.728;2023-06-26T15:13:50;29.20;81.40
23562;DHT22;11959;49.418;8.728;2023-06-26T15:16:16;29.30;80.40
23562;DHT22;11959;49.418;8.728;2023-06-26T15:18:42;29.40;80.20
23562;DHT22;11959;49.418;8.728;2023-06-26T15:21:07;29.50;80.40
23562;DHT22;11959;49.418;8.728;2023-06-26T15:23:36;29.50;79.40
23562;DHT22;11959;49.418;8.728;2023-06-26T15:26:04;29.50;79.10
23562;DHT22;11959;49.418;8.728;2023-06-26T15:28:29;29.40;78.80
23562;DHT22;11959;49.418;8.728;2023-06-26T15:30:55;29.20;78.40
23562;DHT22;11959;49.418;8.728;2023-06-26T15:33:21;29.10;80.60
23562;DHT22;11959;49.418;8.728;2023-06-26T15:35:46;29.10;79.20
23562;DHT22;11959;49.418;8.728;2023-06-26T15:38:12;29.10;77.50
23562;DHT22;11959;49.418;8.728;2023-06-26T15:40:37;29.10;79.00
23562;DHT22;11959;49.418;8.728;2023-06-26T15:43:03;29.10;78.80
23562;DHT22;11959;49.418;8.728;2023-06-26T15:45:29;29.00;78.80
23562;DHT22;11959;49.418;8.728;2023-06-26T15:47:55;29.10;77.20
23562;DHT22;11959;49.418;8.728;2023-06-26T15:50:21;29.10;77.80
23562;DHT22;11959;49.418;8.728;2023-06-26T15:52:50;29.00;78.20